ESSD/BLE METAR and TAF weather

Enter ICAO airport designator
Station Type Date Time Source
ESSD METAR 2021/05/07 00:50 UTC NOAA

ESSD 070050Z AUTO 29005KT 9999 BKN045/// OVC061/// M01/M03 Q1001


Station Type Date Time Source
ESSD Decoded METAR 2021/05/07 00:50 UTC NOAA

Borlange, Sweden (ESSD) 60-26N 015-31E 0M
May 06, 2021 - 08:50 PM EDT / 2021.05.07 0050 UTC
Wind: from the WNW (290 degrees) at 6 MPH (5 KT):0
Visibility: greater than 7 mile(s):0
Sky conditions: overcast
Temperature: 30 F (-1 C)
Windchill: 23 F (-5 C):1
Dew Point: 26 F (-3 C)
Relative Humidity: 86%
Pressure (altimeter): 29.56 in. Hg (1001 hPa)
ob: ESSD 070050Z AUTO 29005KT 9999 BKN045/// OVC061/// M01/M03 Q1001
cycle: 1

Station Type Date Time Source
ESSD TAF 2018/05/02 04:48 UTC NOAA

TAF TAF ESSD 020320Z 0204/0412 27008KT 9999 BKN019 PROB40 0204/0209 BKN006

Example: see airport list